createdAt,value
2022-10-23T00:01:32.896Z,1.40
2022-10-23T00:04:03.944Z,1.30
2022-10-23T00:06:33.468Z,1.20
2022-10-23T00:09:00.484Z,1.10
2022-10-23T00:11:29.561Z,1.08
2022-10-23T00:14:01.237Z,1.58
2022-10-23T00:16:28.783Z,2.05
2022-10-23T00:18:55.689Z,1.33
2022-10-23T00:21:23.792Z,1.35
2022-10-23T00:23:50.586Z,1.42
2022-10-23T00:26:17.445Z,1.40
2022-10-23T00:28:47.490Z,1.20
2022-10-23T00:31:14.260Z,1.30
2022-10-23T00:33:42.116Z,1.20
2022-10-23T00:36:12.262Z,1.40
2022-10-23T00:38:39.362Z,1.55
2022-10-23T00:41:09.762Z,1.70
2022-10-23T00:44:04.792Z,1.30
2022-10-23T00:46:33.353Z,1.45
2022-10-23T00:49:00.969Z,1.55
2022-10-23T00:51:34.244Z,1.30
2022-10-23T00:54:22.795Z,1.13
2022-10-23T00:56:49.029Z,1.15
2022-10-23T00:59:15.849Z,1.35
2022-10-23T01:01:42.747Z,1.38
2022-10-23T01:04:10.257Z,1.58
2022-10-23T01:06:45.227Z,1.40
2022-10-23T01:09:36.658Z,1.67
2022-10-23T01:12:30.060Z,1.40
2022-10-23T01:15:27.052Z,1.38
2022-10-23T01:18:18.632Z,1.60
2022-10-23T01:20:53.482Z,2.00
2022-10-23T01:23:55.150Z,1.50
2022-10-23T01:26:40.673Z,1.08
2022-10-23T01:29:21.077Z,1.40
2022-10-23T01:32:17.637Z,2.03
2022-10-23T01:35:04.729Z,1.10
2022-10-23T01:37:41.377Z,1.30
2022-10-23T01:40:22.461Z,1.50
2022-10-23T01:42:56.639Z,1.23
2022-10-23T01:45:42.542Z,1.40
2022-10-23T01:48:15.670Z,1.40
2022-10-23T01:50:44.079Z,1.40
2022-10-23T01:53:10.842Z,1.67
2022-10-23T01:55:39.037Z,2.20
2022-10-23T01:58:08.354Z,1.38
2022-10-23T02:00:39.434Z,1.17
2022-10-23T02:03:07.900Z,1.33
2022-10-23T02:05:34.905Z,1.40
2022-10-23T02:08:02.398Z,1.45
2022-10-23T02:10:49.409Z,1.63
2022-10-23T02:13:59.780Z,1.30
2022-10-23T02:16:41.386Z,1.45
2022-10-23T02:19:39.170Z,1.52
2022-10-23T02:22:24.414Z,1.30
2022-10-23T02:24:58.457Z,1.60
2022-10-23T02:27:52.389Z,1.35
2022-10-23T02:30:20.143Z,1.67
2022-10-23T02:32:51.456Z,1.17
2022-10-23T02:35:21.453Z,1.70
2022-10-23T02:37:59.875Z,1.40
2022-10-23T02:40:41.121Z,1.58
2022-10-23T02:43:22.370Z,1.55
2022-10-23T02:46:29.811Z,1.20
2022-10-23T02:49:18.648Z,1.48
2022-10-23T02:52:01.542Z,1.38
2022-10-23T02:54:45.204Z,1.60
2022-10-23T02:57:26.926Z,1.73
2022-10-23T03:00:07.906Z,1.48
2022-10-23T03:02:46.954Z,1.30
2022-10-23T03:05:20.645Z,2.80
2022-10-23T03:07:47.881Z,1.40
2022-10-23T03:10:14.889Z,1.50
2022-10-23T03:12:42.244Z,1.67
2022-10-23T03:15:12.028Z,1.75
2022-10-23T03:17:39.095Z,1.38
2022-10-23T03:20:07.809Z,1.40
2022-10-23T03:22:34.654Z,1.90
2022-10-23T03:25:01.437Z,1.60
2022-10-23T03:29:55.529Z,1.20
2022-10-23T03:32:22.113Z,1.23
2022-10-23T03:34:48.738Z,1.02
2022-10-23T03:37:15.330Z,1.38
2022-10-23T03:39:42.158Z,1.55
2022-10-23T03:42:08.825Z,1.15
2022-10-23T03:44:35.412Z,1.40
2022-10-23T03:47:02.086Z,1.40
2022-10-23T03:49:28.942Z,1.23
2022-10-23T03:51:58.089Z,1.17
2022-10-23T03:54:27.359Z,1.85
2022-10-23T03:56:57.371Z,1.48
2022-10-23T03:59:24.505Z,1.23
2022-10-23T04:01:51.480Z,1.20
2022-10-23T04:04:18.416Z,1.27
2022-10-23T04:06:45.362Z,1.25
2022-10-23T04:11:39.674Z,1.25
2022-10-23T04:14:06.254Z,1.52
2022-10-23T04:16:32.838Z,1.92
2022-10-23T04:18:59.512Z,1.30
2022-10-23T04:21:26.154Z,2.65
2022-10-23T04:23:52.787Z,1.63
2022-10-23T04:26:19.378Z,2.60
2022-10-23T04:28:45.999Z,1.55
2022-10-23T04:31:12.719Z,1.33
2022-10-23T04:33:39.290Z,1.65
2022-10-23T04:36:06.486Z,1.10
2022-10-23T04:38:33.139Z,1.42
2022-10-23T04:40:59.730Z,1.15
2022-10-23T04:43:26.331Z,1.50
2022-10-23T04:45:52.948Z,1.55
2022-10-23T04:48:25.496Z,1.20
2022-10-23T04:51:01.101Z,1.50
2022-10-23T04:53:29.074Z,1.23
2022-10-23T04:55:58.526Z,1.30
2022-10-23T04:58:27.072Z,1.85
2022-10-23T05:00:53.842Z,1.98
2022-10-23T05:03:22.519Z,1.20
2022-10-23T05:05:49.102Z,1.58
2022-10-23T05:08:18.014Z,1.50
2022-10-23T05:10:44.983Z,1.20
2022-10-23T05:13:11.576Z,1.48
2022-10-23T05:18:26.107Z,1.42
2022-10-23T05:21:00.756Z,1.60
2022-10-23T05:23:30.507Z,1.77
2022-10-23T05:25:57.079Z,1.67
2022-10-23T05:28:24.318Z,1.48
2022-10-23T05:30:51.245Z,1.40
2022-10-23T05:33:19.023Z,1.40
2022-10-23T05:35:45.847Z,1.30
2022-10-23T05:38:14.526Z,1.45
2022-10-23T05:40:41.139Z,0.98
2022-10-23T05:43:07.779Z,2.17
2022-10-23T05:45:34.459Z,1.50
2022-10-23T05:48:11.005Z,1.60
2022-10-23T05:50:47.715Z,1.40
2022-10-23T05:53:14.760Z,1.45
2022-10-23T05:55:41.336Z,1.35
2022-10-23T05:58:07.923Z,0.95
2022-10-23T06:00:34.523Z,0.95
2022-10-23T06:03:03.139Z,1.10
2022-10-23T06:05:31.142Z,1.30
2022-10-23T06:07:59.634Z,1.58
2022-10-23T06:10:27.507Z,1.60
2022-10-23T06:12:54.180Z,1.55
2022-10-23T06:15:20.772Z,1.73
2022-10-23T06:17:47.351Z,1.75
2022-10-23T06:20:14.020Z,1.40
2022-10-23T06:22:40.891Z,1.73
2022-10-23T06:25:08.720Z,1.65
2022-10-23T06:27:35.284Z,1.65
2022-10-23T06:30:01.896Z,2.58
2022-10-23T06:32:32.231Z,2.90
2022-10-23T06:34:58.805Z,2.78
2022-10-23T06:37:25.388Z,2.70
2022-10-23T06:39:51.996Z,2.22
2022-10-23T06:42:18.659Z,2.17
2022-10-23T06:44:45.213Z,2.38
2022-10-23T06:47:13.962Z,2.20
2022-10-23T06:49:40.597Z,2.88
2022-10-23T06:52:14.236Z,2.20
2022-10-23T06:54:49.866Z,1.90
2022-10-23T06:57:16.451Z,1.95
2022-10-23T06:59:43.023Z,1.70
2022-10-23T07:02:10.316Z,1.85
2022-10-23T07:04:36.936Z,2.10
2022-10-23T07:07:03.537Z,1.45
2022-10-23T07:09:30.308Z,1.88
2022-10-23T07:11:56.956Z,1.67
2022-10-23T07:14:23.587Z,1.60
2022-10-23T07:16:50.145Z,2.10
2022-10-23T07:19:16.712Z,2.40
2022-10-23T07:21:43.336Z,2.47
2022-10-23T07:24:10.240Z,2.17
2022-10-23T07:26:36.840Z,1.83
2022-10-23T07:29:03.476Z,2.10
2022-10-23T07:31:30.281Z,1.63
2022-10-23T07:33:56.912Z,1.83
2022-10-23T07:36:23.584Z,1.85
2022-10-23T07:38:51.300Z,1.95
2022-10-23T07:41:18.048Z,2.67
2022-10-23T07:43:44.748Z,2.15
2022-10-23T07:46:11.567Z,2.40
2022-10-23T07:48:39.222Z,3.03
2022-10-23T07:51:12.340Z,1.83
2022-10-23T07:53:39.433Z,2.50
2022-10-23T07:56:24.056Z,2.17
2022-10-23T07:58:53.638Z,2.13
2022-10-23T08:01:28.257Z,1.80
2022-10-23T08:03:54.972Z,1.80
2022-10-23T08:06:21.595Z,2.10
2022-10-23T08:08:48.179Z,2.00
2022-10-23T08:11:18.039Z,1.70
2022-10-23T08:13:44.605Z,1.90
2022-10-23T08:16:11.218Z,1.67
2022-10-23T08:18:37.813Z,1.67
2022-10-23T08:21:04.961Z,1.52
2022-10-23T08:23:31.814Z,1.45
2022-10-23T08:26:02.982Z,1.40
2022-10-23T08:28:29.597Z,2.17
2022-10-23T08:30:56.282Z,1.73
2022-10-23T08:33:23.972Z,1.70
2022-10-23T08:35:51.052Z,1.30
2022-10-23T08:38:18.048Z,1.90
2022-10-23T08:40:47.005Z,1.50
2022-10-23T08:43:18.720Z,1.40
2022-10-23T08:45:55.463Z,2.03
2022-10-23T08:48:50.727Z,1.63
2022-10-23T08:51:25.515Z,1.73
2022-10-23T08:53:56.801Z,2.20
2022-10-23T08:56:39.425Z,1.55
2022-10-23T08:59:28.420Z,1.75
2022-10-23T09:02:02.979Z,1.50
2022-10-23T09:04:30.536Z,1.55
2022-10-23T09:07:54.201Z,1.40
2022-10-23T09:10:59.465Z,1.25
2022-10-23T09:13:47.513Z,1.40
2022-10-23T09:16:46.170Z,1.38
2022-10-23T09:19:18.888Z,1.40
2022-10-23T09:21:50.013Z,1.35
2022-10-23T09:24:20.077Z,1.55
2022-10-23T09:26:49.921Z,1.27
2022-10-23T09:29:30.446Z,1.63
2022-10-23T09:32:04.317Z,1.80
2022-10-23T09:34:33.509Z,1.90
2022-10-23T09:37:23.036Z,1.67
2022-10-23T09:39:49.708Z,2.05
2022-10-23T09:42:26.262Z,1.88
2022-10-23T09:44:54.962Z,1.55
2022-10-23T09:47:25.851Z,1.67
2022-10-23T09:49:57.205Z,1.88
2022-10-23T09:52:37.463Z,2.05
2022-10-23T09:55:21.483Z,1.75
2022-10-23T09:57:48.206Z,2.22
2022-10-23T10:00:19.162Z,2.35
2022-10-23T10:03:06.907Z,2.10
2022-10-23T10:05:37.167Z,2.40
2022-10-23T10:08:05.944Z,2.80
2022-10-23T10:10:46.203Z,2.22
2022-10-23T10:13:37.082Z,1.90
2022-10-23T10:16:20.285Z,2.00
2022-10-23T10:18:57.475Z,1.95
2022-10-23T10:21:58.160Z,1.95
2022-10-23T10:24:46.011Z,1.80
2022-10-23T10:27:54.099Z,1.85
2022-10-23T10:30:23.231Z,1.90
2022-10-23T10:33:10.183Z,1.80
2022-10-23T10:36:00.401Z,1.65
2022-10-23T10:38:47.157Z,1.50
2022-10-23T10:41:33.111Z,1.73
2022-10-23T10:44:18.292Z,2.38
2022-10-23T10:47:10.196Z,2.72
2022-10-23T10:50:15.307Z,3.65
2022-10-23T10:53:00.059Z,4.20
2022-10-23T10:55:38.349Z,2.05
2022-10-23T10:58:43.974Z,1.85
2022-10-23T11:01:42.724Z,5.50
2022-10-23T11:04:37.923Z,2.85
2022-10-23T11:07:11.926Z,1.40
2022-10-23T11:09:39.384Z,1.58
2022-10-23T11:12:06.141Z,1.50
2022-10-23T11:14:34.358Z,1.50
2022-10-23T11:17:47.554Z,1.50
2022-10-23T11:20:41.378Z,2.10
2022-10-23T11:23:43.253Z,1.60
2022-10-23T11:26:32.559Z,1.67
2022-10-23T11:29:28.815Z,2.58
2022-10-23T11:32:34.897Z,2.00
2022-10-23T11:35:30.669Z,1.92
2022-10-23T11:38:19.064Z,1.60
2022-10-23T11:43:46.715Z,1.60
2022-10-23T11:46:31.952Z,1.25
2022-10-23T11:49:02.171Z,1.40
2022-10-23T11:51:42.172Z,1.48
2022-10-23T11:54:11.837Z,1.25
2022-10-23T11:56:53.374Z,1.50
2022-10-23T11:59:29.237Z,1.63
2022-10-23T12:01:58.411Z,1.95
2022-10-23T12:04:52.578Z,4.03
2022-10-23T12:07:30.033Z,4.05
2022-10-23T12:10:05.611Z,3.28
2022-10-23T12:12:40.954Z,1.63
2022-10-23T12:15:16.442Z,2.28
2022-10-23T12:17:44.357Z,1.13
2022-10-23T12:20:11.319Z,1.30
2022-10-23T12:23:05.458Z,1.27
2022-10-23T12:26:02.664Z,1.55
2022-10-23T12:28:50.216Z,1.42
2022-10-23T12:31:47.844Z,1.48
2022-10-23T12:34:42.185Z,1.13
2022-10-23T12:37:43.924Z,1.50
2022-10-23T12:40:12.072Z,1.23
2022-10-23T12:42:38.939Z,6.50
2022-10-23T12:45:28.865Z,4.25
2022-10-23T12:47:55.850Z,1.55
2022-10-23T12:50:29.349Z,1.55
2022-10-23T12:53:06.573Z,1.77
2022-10-23T12:58:31.935Z,1.33
2022-10-23T13:01:03.428Z,1.45
2022-10-23T13:03:32.017Z,1.60
2022-10-23T13:06:02.560Z,1.80
2022-10-23T13:08:42.433Z,1.45
2022-10-23T13:11:16.082Z,1.38
2022-10-23T13:13:42.806Z,1.90
2022-10-23T13:16:21.629Z,1.73
2022-10-23T13:18:49.233Z,1.40
2022-10-23T13:21:28.358Z,1.58
2022-10-23T13:23:56.007Z,1.45
2022-10-23T13:26:47.756Z,1.52
2022-10-23T13:29:34.521Z,1.50
2022-10-23T13:32:24.166Z,1.48
2022-10-23T13:35:04.090Z,2.00
2022-10-23T13:37:37.341Z,1.63
2022-10-23T13:40:23.851Z,2.20
2022-10-23T13:42:53.081Z,1.60
2022-10-23T13:45:26.193Z,1.75
2022-10-23T13:47:53.310Z,1.50
2022-10-23T13:50:20.511Z,2.00
2022-10-23T13:52:47.101Z,1.52
2022-10-23T13:55:25.365Z,1.80
2022-10-23T13:57:51.986Z,1.80
2022-10-23T14:00:19.172Z,2.40
2022-10-23T14:02:46.063Z,1.83
2022-10-23T14:05:13.038Z,1.90
2022-10-23T14:07:39.935Z,1.90
2022-10-23T14:10:07.142Z,2.33
2022-10-23T14:12:40.777Z,2.08
2022-10-23T14:15:08.869Z,2.50
2022-10-23T14:17:35.989Z,2.30
2022-10-23T14:20:06.046Z,2.72
2022-10-23T14:22:33.227Z,2.40
2022-10-23T14:25:00.324Z,2.40
2022-10-23T14:27:26.971Z,2.50
2022-10-23T14:29:53.563Z,2.85
2022-10-23T14:32:20.164Z,2.25
2022-10-23T14:34:51.596Z,2.10
2022-10-23T14:37:19.406Z,3.67
2022-10-23T14:39:49.978Z,2.42
2022-10-23T14:42:17.059Z,2.80
2022-10-23T14:44:43.895Z,2.08
2022-10-23T14:47:10.530Z,2.70
2022-10-23T14:49:39.905Z,2.70
2022-10-23T14:52:09.532Z,2.50
2022-10-23T14:54:36.319Z,2.50
2022-10-23T14:57:03.642Z,2.33
2022-10-23T14:59:30.381Z,2.95
2022-10-23T15:01:56.960Z,4.30
2022-10-23T15:04:23.762Z,4.47
2022-10-23T15:06:50.405Z,4.22
2022-10-23T15:09:19.630Z,3.63
2022-10-23T15:11:47.200Z,4.40
2022-10-23T15:14:13.833Z,3.92
2022-10-23T15:16:43.530Z,7.20
2022-10-23T15:19:15.465Z,6.47
2022-10-23T15:21:45.571Z,7.13
2022-10-23T15:24:12.162Z,5.72
2022-10-23T15:26:39.476Z,10.05
2022-10-23T15:29:06.521Z,6.28
2022-10-23T15:31:38.594Z,9.32
2022-10-23T15:34:06.251Z,12.02
2022-10-23T15:36:33.131Z,16.83
2022-10-23T15:39:00.277Z,11.20
2022-10-23T15:41:32.654Z,7.20
2022-10-23T15:44:01.543Z,4.82
2022-10-23T15:46:28.574Z,3.20
2022-10-23T15:48:55.318Z,10.00
2022-10-23T15:51:22.457Z,11.02
2022-10-23T15:53:49.197Z,9.15
2022-10-23T15:56:15.825Z,5.85
2022-10-23T15:58:42.476Z,7.95
2022-10-23T16:01:09.532Z,4.07
2022-10-23T16:03:38.401Z,3.95
2022-10-23T16:06:09.016Z,7.03
2022-10-23T16:08:36.065Z,3.67
2022-10-23T16:11:03.949Z,3.72
2022-10-23T16:13:30.689Z,3.60
2022-10-23T16:15:57.256Z,2.42
2022-10-23T16:18:23.831Z,12.50
2022-10-23T16:20:50.870Z,6.80
2022-10-23T16:23:17.611Z,6.00
2022-10-23T16:25:45.510Z,5.13
2022-10-23T16:28:12.376Z,3.75
2022-10-23T16:30:43.431Z,4.80
2022-10-23T16:33:10.083Z,2.45
2022-10-23T16:35:37.185Z,5.22
2022-10-23T16:38:04.454Z,5.50
2022-10-23T16:40:31.255Z,4.55
2022-10-23T16:42:58.588Z,5.38
2022-10-23T16:45:25.326Z,7.07
2022-10-23T16:47:51.966Z,5.28
2022-10-23T16:50:18.702Z,4.93
2022-10-23T16:52:45.736Z,7.35
2022-10-23T16:55:12.953Z,4.43
2022-10-23T16:57:39.615Z,3.80
2022-10-23T17:00:07.341Z,4.90
2022-10-23T17:02:34.311Z,11.32
2022-10-23T17:05:01.017Z,5.72
2022-10-23T17:07:27.616Z,4.25
2022-10-23T17:09:54.270Z,5.93
2022-10-23T17:12:20.853Z,3.92
2022-10-23T17:14:47.425Z,4.00
2022-10-23T17:17:14.113Z,4.30
2022-10-23T17:19:45.525Z,5.35
2022-10-23T17:22:13.470Z,2.92
2022-10-23T17:24:42.389Z,2.83
2022-10-23T17:27:09.456Z,2.28
2022-10-23T17:29:36.304Z,1.70
2022-10-23T17:32:03.627Z,1.85
2022-10-23T17:34:30.292Z,2.80
2022-10-23T17:36:57.028Z,2.38
2022-10-23T17:39:28.171Z,1.80
2022-10-23T17:41:55.931Z,1.67
2022-10-23T17:44:22.808Z,1.80
2022-10-23T17:46:54.260Z,1.88
2022-10-23T17:49:22.580Z,1.80
2022-10-23T17:51:57.229Z,1.60
2022-10-23T17:54:26.330Z,1.52
2022-10-23T17:56:52.960Z,1.50
2022-10-23T17:59:19.854Z,1.92
2022-10-23T18:01:48.115Z,1.75
2022-10-23T18:04:17.638Z,1.88
2022-10-23T18:06:49.053Z,1.85
2022-10-23T18:09:16.432Z,2.20
2022-10-23T18:11:48.105Z,1.88
2022-10-23T18:14:18.161Z,1.70
2022-10-23T18:16:45.602Z,3.28
2022-10-23T18:19:13.384Z,2.85
2022-10-23T18:21:40.060Z,3.00
2022-10-23T18:24:06.811Z,2.10
2022-10-23T18:26:38.958Z,4.07
2022-10-23T18:29:09.696Z,3.08
2022-10-23T18:31:37.665Z,3.15
2022-10-23T18:34:11.609Z,2.58
2022-10-23T18:36:40.680Z,2.90
2022-10-23T18:39:12.305Z,3.35
2022-10-23T18:41:42.773Z,2.08
2022-10-23T18:44:15.106Z,1.90
2022-10-23T18:46:42.121Z,2.00
2022-10-23T18:49:09.641Z,1.60
2022-10-23T18:51:37.649Z,2.42
2022-10-23T18:54:12.885Z,2.30
2022-10-23T18:56:40.069Z,2.38
2022-10-23T18:59:11.665Z,2.20
2022-10-23T19:01:38.348Z,2.10
2022-10-23T19:04:05.867Z,2.53
2022-10-23T19:06:35.376Z,2.65
2022-10-23T19:09:03.817Z,2.47
2022-10-23T19:11:30.388Z,2.35
2022-10-23T19:13:56.980Z,4.10
2022-10-23T19:16:40.429Z,4.32
2022-10-23T19:19:20.107Z,3.65
2022-10-23T19:21:47.667Z,2.70
2022-10-23T19:24:22.043Z,2.72
2022-10-23T19:26:49.520Z,2.40
2022-10-23T19:29:22.568Z,2.53
2022-10-23T19:31:49.672Z,2.28
2022-10-23T19:34:19.972Z,2.25
2022-10-23T19:36:52.429Z,2.88
2022-10-23T19:39:19.612Z,8.25
2022-10-23T19:41:47.143Z,4.20
2022-10-23T19:44:15.107Z,3.80
2022-10-23T19:46:41.721Z,3.15
2022-10-23T19:49:09.680Z,3.72
2022-10-23T19:51:36.576Z,4.18
2022-10-23T19:54:04.184Z,3.70
2022-10-23T19:56:30.812Z,3.05
2022-10-23T19:58:57.368Z,3.15
2022-10-23T20:01:25.250Z,3.58
2022-10-23T20:03:52.387Z,5.25
2022-10-23T20:06:23.387Z,5.00
2022-10-23T20:08:50.491Z,5.25
2022-10-23T20:11:22.376Z,4.82
2022-10-23T20:13:50.029Z,4.78
2022-10-23T20:16:23.356Z,3.97
2022-10-23T20:18:50.390Z,4.10
2022-10-23T20:21:17.955Z,4.45
2022-10-23T20:23:44.973Z,4.35
2022-10-23T20:26:16.478Z,4.28
2022-10-23T20:28:48.421Z,4.18
2022-10-23T20:31:15.992Z,4.03
2022-10-23T20:33:43.549Z,4.18
2022-10-23T20:36:32.322Z,4.68
2022-10-23T20:39:03.101Z,6.90
2022-10-23T20:41:32.929Z,8.32
2022-10-23T20:44:00.358Z,9.13
2022-10-23T20:46:27.337Z,8.55
2022-10-23T20:48:54.271Z,9.32
2022-10-23T20:51:23.481Z,7.95
2022-10-23T20:53:52.935Z,8.05
2022-10-23T20:56:30.923Z,6.65
2022-10-23T20:58:59.885Z,7.00
2022-10-23T21:01:27.735Z,5.72
2022-10-23T21:03:56.938Z,5.18
2022-10-23T21:06:26.426Z,4.78
2022-10-23T21:09:06.458Z,4.80
2022-10-23T21:11:35.331Z,4.68
2022-10-23T21:14:03.631Z,5.13
2022-10-23T21:16:37.113Z,4.50
2022-10-23T21:19:04.434Z,3.85
2022-10-23T21:21:33.057Z,3.70
2022-10-23T21:24:04.683Z,4.20
2022-10-23T21:26:32.094Z,3.88
2022-10-23T21:29:13.718Z,5.07
2022-10-23T21:31:44.897Z,4.55
2022-10-23T21:37:10.848Z,3.85
2022-10-23T21:39:33.257Z,5.45
2022-10-23T21:42:00.100Z,5.47
2022-10-23T21:44:26.795Z,5.30
2022-10-23T21:46:53.546Z,4.55
2022-10-23T21:49:20.256Z,4.15
2022-10-23T21:51:47.304Z,4.38
2022-10-23T21:54:17.633Z,3.80
2022-10-23T21:56:46.722Z,4.22
2022-10-23T21:59:16.788Z,4.57
2022-10-23T22:01:46.131Z,4.03
2022-10-23T22:04:15.019Z,4.65
2022-10-23T22:06:42.470Z,4.45
2022-10-23T22:09:12.239Z,4.03
2022-10-23T22:11:38.997Z,3.97
2022-10-23T22:14:05.625Z,4.10
2022-10-23T22:16:32.233Z,4.10
2022-10-23T22:18:58.957Z,4.45
2022-10-23T22:21:29.029Z,4.20
2022-10-23T22:23:58.436Z,4.28
2022-10-23T22:26:32.338Z,3.65
2022-10-23T22:29:03.241Z,4.05
2022-10-23T22:31:33.057Z,3.90
2022-10-23T22:34:12.958Z,3.53
2022-10-23T22:36:47.673Z,3.88
2022-10-23T22:39:14.722Z,3.50
2022-10-23T22:41:43.468Z,3.20
2022-10-23T22:44:11.971Z,3.90
2022-10-23T22:46:38.629Z,3.78
2022-10-23T22:51:37.721Z,4.00
2022-10-23T22:54:04.527Z,3.95
2022-10-23T22:56:32.163Z,4.00
2022-10-23T22:58:58.753Z,3.92
2022-10-23T23:01:36.310Z,4.22
2022-10-23T23:04:13.856Z,3.58
2022-10-23T23:06:49.696Z,4.00
2022-10-23T23:09:18.084Z,3.63
2022-10-23T23:11:51.562Z,4.32
2022-10-23T23:14:23.187Z,4.05
2022-10-23T23:16:52.473Z,4.13
2022-10-23T23:19:19.199Z,4.13
2022-10-23T23:21:45.857Z,4.10
2022-10-23T23:24:12.646Z,5.13
2022-10-23T23:26:39.478Z,5.32
2022-10-23T23:29:06.243Z,4.93
2022-10-23T23:31:32.983Z,4.88
2022-10-23T23:33:59.605Z,4.85
2022-10-23T23:36:28.526Z,5.65
2022-10-23T23:38:57.636Z,5.45
2022-10-23T23:41:26.277Z,5.72
2022-10-23T23:43:58.049Z,6.00
2022-10-23T23:46:25.532Z,5.68
2022-10-23T23:48:52.156Z,5.18
2022-10-23T23:51:22.617Z,6.28
2022-10-23T23:53:51.017Z,5.50
2022-10-23T23:56:18.442Z,5.32
2022-10-23T23:58:45.098Z,5.60
